Academia, Pennsylvania
Current Conditions -  °F | °C
As of 12:15 AM on Tuesday 23 Dec 2014 (Local Time) from KUNV Reporting Station
Haze Haze  
Wind Chill: 27°   Ceiling: 500
Heat Index: 32°   Visibility: 0.75mi
Dew Point: 32°   Wind: 5mph
Humidity: 99%   Direction: 290°WNW
Pressure: 30.07"   Gusts: NA
Location:  40.4991°N, 77.4687°W
Report Text: KUNV 230515Z AUTO 29004KT 3/4SM BR BKN005 OVC011 00/00 A3007 RMK AO2 T00001002
Loading
Personal Weather Stations






























Interactive Weather Map New forecast layout! Learn more

10-Day Weather Forecast

Advertisements
Track Severe Weather on mobile